Time;durP1;ratioP1;P1;durP2;ratioP2;P2;SDS_P1;SDS_P2;PMS_P1;PMS_P2;Temp;Humidity;BMP_temperature;BMP_pressure;BME280_temperature;BME280_humidity;BME280_pressure;Samples;Min_cycle;Max_cycle;Signal;HPM_P1;HPM_P2
2023/08/05 00:00:27;;;;;;;10.75;2.35;;;;;;;27.33;50.81;99103.41;5097955;28;20055;-82
2023/08/05 00:02:52;;;;;;;2.30;1.65;;;;;;;27.30;50.75;99112.63;5096230;28;20027;-81
2023/08/05 00:05:18;;;;;;;3.72;2.50;;;;;;;27.05;51.64;99103.25;5101354;28;20119;-81
2023/08/05 00:07:43;;;;;;;2.70;1.67;;;;;;;27.14;51.78;99113.22;5095044;28;20731;-82
2023/08/05 00:10:09;;;;;;;1.77;1.63;;;;;;;27.14;51.52;99106.94;5095900;28;20039;-81
2023/08/05 00:12:34;;;;;;;3.00;1.50;;;;;;;27.04;52.22;99111.50;5097396;28;20746;-81
2023/08/05 00:15:01;;;;;;;2.30;1.38;;;;;;;26.55;53.68;99097.91;5098249;28;20413;-81
2023/08/05 00:17:26;;;;;;;2.28;1.45;;;;;;;26.47;54.13;99095.91;5097289;28;20490;-82
2023/08/05 00:19:52;;;;;;;2.53;1.63;;;;;;;26.60;54.06;99114.56;5097843;28;20031;-82
2023/08/05 00:22:18;;;;;;;2.03;1.33;;;;;;;26.69;53.61;99097.53;5094824;28;20043;-83
2023/08/05 00:24:43;;;;;;;2.10;1.60;;;;;;;26.68;53.85;99106.66;5098392;28;20046;-82
2023/08/05 00:27:09;;;;;;;2.03;1.70;;;;;;;26.55;54.81;99101.47;5109339;28;20043;-82
2023/08/05 00:29:34;;;;;;;2.35;1.30;;;;;;;26.51;54.53;99083.81;5111878;28;20417;-81
2023/08/05 00:32:00;;;;;;;2.95;1.60;;;;;;;26.65;54.54;99095.19;5111451;28;20354;-82
2023/08/05 00:34:25;;;;;;;2.03;1.38;;;;;;;26.60;54.74;99103.75;5112276;28;20036;-81
2023/08/05 00:36:50;;;;;;;1.10;1.00;;;;;;;26.45;55.02;99078.97;5112469;28;20027;-81
2023/08/05 00:39:16;;;;;;;1.80;1.58;;;;;;;26.56;55.06;99088.81;5100104;28;20074;-82
2023/08/05 00:41:41;;;;;;;1.83;1.58;;;;;;;26.37;55.11;99052.63;5091058;28;20471;-83
2023/08/05 00:44:07;;;;;;;1.98;1.58;;;;;;;26.21;55.43;99045.06;5110943;28;20073;-83
2023/08/05 00:46:32;;;;;;;1.80;1.30;;;;;;;26.40;55.60;99065.00;5105556;28;20562;-83
2023/08/05 00:49:00;;;;;;;1.85;1.38;;;;;;;26.44;56.16;99088.06;5091824;28;20080;-83
2023/08/05 00:51:26;;;;;;;3.55;1.95;;;;;;;26.25;56.92;99083.47;5091895;28;20020;-81
2023/08/05 00:53:51;;;;;;;2.38;1.70;;;;;;;26.10;57.09;99077.59;5107129;28;20574;-81
2023/08/05 00:56:17;;;;;;;3.72;2.53;;;;;;;26.06;57.73;99087.84;5111871;28;20032;-82
2023/08/05 00:58:44;;;;;;;2.83;1.55;;;;;;;25.84;58.47;99066.38;5111198;28;20473;-81
2023/08/05 01:01:10;;;;;;;2.53;1.67;;;;;;;25.80;58.51;99046.88;5092002;28;20390;-80
2023/08/05 01:03:36;;;;;;;3.67;1.88;;;;;;;26.02;58.24;99064.78;5105582;28;20027;-81
2023/08/05 01:06:03;;;;;;;5.22;2.65;;;;;;;26.26;57.75;99088.75;5112002;28;20034;-81
2023/08/05 01:08:30;;;;;;;2.65;2.05;;;;;;;26.01;57.92;99054.97;5111547;28;20023;-82
2023/08/05 01:10:56;;;;;;;3.83;2.45;;;;;;;26.05;57.92;99058.25;5111448;28;20508;-82
2023/08/05 01:13:22;;;;;;;3.53;2.25;;;;;;;26.00;58.63;99074.03;5111543;28;20118;-82
2023/08/05 01:15:47;;;;;;;3.17;2.25;;;;;;;25.84;59.13;99060.97;5110386;28;20405;-82
2023/08/05 01:18:15;;;;;;;10.73;3.30;;;;;;;25.96;59.38;99080.66;5111080;28;20067;-82
2023/08/05 01:20:47;;;;;;;4.00;2.50;;;;;;;26.01;58.90;99084.69;5107022;28;20024;-82
2023/08/05 01:23:40;;;;;;;4.90;2.20;;;;;;;25.97;59.03;99056.19;5099534;28;20020;-83
2023/08/05 01:26:09;;;;;;;2.88;1.80;;;;;;;26.13;58.72;99071.06;5108809;28;20039;-82
2023/08/05 01:28:37;;;;;;;2.75;1.08;;;;;;;26.16;58.88;99074.34;5111460;28;20057;-83
2023/08/05 01:31:04;;;;;;;3.47;1.50;;;;;;;26.04;59.05;99068.22;5110945;28;20035;-83
2023/08/05 01:33:30;;;;;;;2.90;1.83;;;;;;;26.18;58.85;99075.09;5110164;28;20032;-82
2023/08/05 01:35:55;;;;;;;2.47;1.70;;;;;;;26.02;59.31;99061.22;5111205;27;20038;-82
2023/08/05 01:38:21;;;;;;;3.70;2.15;;;;;;;25.99;59.43;99073.16;5110880;28;20027;-81
2023/08/05 01:40:46;;;;;;;3.53;2.13;;;;;;;26.03;59.55;99062.94;5110609;28;20707;-81
2023/08/05 01:43:12;;;;;;;3.42;2.25;;;;;;;25.94;59.89;99063.72;5110885;28;20032;-81
2023/08/05 01:45:37;;;;;;;3.08;1.75;;;;;;;25.96;59.85;99053.63;5110632;28;20028;-81
2023/08/05 01:48:03;;;;;;;3.13;2.20;;;;;;;25.95;59.98;99044.69;5111204;28;20482;-81
2023/08/05 01:50:29;;;;;;;4.05;1.73;;;;;;;25.68;60.23;99019.13;5109059;28;20078;-81
2023/08/05 01:52:54;;;;;;;2.92;2.17;;;;;;;25.66;60.94;99026.50;5110524;28;20028;-81
2023/08/05 01:55:20;;;;;;;11.80;3.38;;;;;;;25.63;61.89;99056.47;5110865;28;20513;-81
2023/08/05 01:57:46;;;;;;;3.03;2.10;;;;;;;25.41;62.27;99025.13;5110638;28;20039;-81
2023/08/05 02:00:12;;;;;;;3.13;1.75;;;;;;;25.41;62.89;99060.22;5111119;28;20489;-81
2023/08/05 02:02:38;;;;;;;3.72;2.15;;;;;;;25.63;62.71;99075.38;5109399;28;20059;-82
2023/08/05 02:05:03;;;;;;;2.67;1.85;;;;;;;25.59;62.65;99052.34;5110940;28;20027;-80
2023/08/05 02:07:29;;;;;;;2.95;2.30;;;;;;;25.82;62.45;99071.06;5111293;28;20405;-80
2023/08/05 02:09:54;;;;;;;4.10;2.28;;;;;;;25.61;63.14;99063.88;5111285;28;20024;-81
2023/08/05 02:12:20;;;;;;;5.45;2.40;;;;;;;25.55;63.46;99051.75;5110737;28;20038;-81
2023/08/05 02:14:45;;;;;;;3.13;2.30;;;;;;;25.54;63.84;99052.75;5108523;28;20121;-80
2023/08/05 02:17:11;;;;;;;4.13;3.20;;;;;;;25.55;64.23;99054.47;5111012;28;20031;-81
2023/08/05 02:19:36;;;;;;;3.83;2.03;;;;;;;25.58;63.89;99061.44;5109029;28;20027;-82
2023/08/05 02:22:02;;;;;;;2.72;1.92;;;;;;;25.58;63.95;99057.88;5111166;28;20534;-81
2023/08/05 02:24:27;;;;;;;3.55;2.25;;;;;;;25.58;64.20;99058.75;5110088;28;20444;-82
2023/08/05 02:26:53;;;;;;;2.20;1.95;;;;;;;25.65;64.64;99077.94;5110930;28;20515;-82
2023/08/05 02:29:18;;;;;;;2.38;1.75;;;;;;;25.67;64.24;99074.13;5110843;28;20505;-82
2023/08/05 02:31:45;;;;;;;3.47;2.30;;;;;;;25.68;64.55;99083.09;5106354;28;20063;-81
2023/08/05 02:34:10;;;;;;;3.58;2.85;;;;;;;25.33;64.97;99038.41;5093645;28;20101;-82
2023/08/05 02:36:36;;;;;;;3.60;2.00;;;;;;;25.35;64.86;99063.44;5108570;28;20476;-82
2023/08/05 02:39:01;;;;;;;2.55;1.95;;;;;;;25.58;64.60;99084.88;5114611;28;20059;-82
2023/08/05 02:41:27;;;;;;;2.58;2.28;;;;;;;25.65;63.95;99077.94;5114697;28;20500;-81
2023/08/05 02:43:52;;;;;;;2.03;1.50;;;;;;;25.63;64.32;99064.59;5114498;28;20035;-82
2023/08/05 02:46:18;;;;;;;3.40;2.08;;;;;;;25.31;65.58;99057.44;5108258;28;20016;-82
2023/08/05 02:48:43;;;;;;;5.20;2.70;;;;;;;25.26;65.63;99043.47;5102964;28;20406;-81
2023/08/05 02:51:09;;;;;;;2.22;1.90;;;;;;;25.30;66.00;99069.25;5114810;28;20092;-81
2023/08/05 02:53:34;;;;;;;4.03;2.75;;;;;;;25.52;65.82;99089.81;5109996;28;20442;-81
2023/08/05 02:55:59;;;;;;;3.10;1.80;;;;;;;25.25;66.29;99074.13;5111463;28;20066;-81
2023/08/05 02:58:26;;;;;;;9.25;3.60;;;;;;;25.23;66.59;99056.38;5111862;28;20086;-81
2023/08/05 03:00:51;;;;;;;3.25;1.95;;;;;;;25.30;66.42;99074.63;5113693;28;20038;-81
2023/08/05 03:03:17;;;;;;;5.72;2.05;;;;;;;24.98;67.96;99043.13;5113795;28;20423;-80
2023/08/05 03:05:43;;;;;;;4.18;2.08;;;;;;;25.23;67.43;99078.81;5114451;28;20082;-81
2023/08/05 03:08:10;;;;;;;8.05;1.98;;;;;;;25.28;67.70;99097.31;5113652;28;20032;-81
2023/08/05 03:10:37;;;;;;;11.52;2.13;;;;;;;25.22;67.47;99071.69;5114057;28;20066;-81
2023/08/05 03:13:03;;;;;;;5.60;1.50;;;;;;;25.22;67.50;99071.69;5113978;28;20031;-81
2023/08/05 03:15:29;;;;;;;12.57;2.65;;;;;;;25.31;67.67;99083.59;5113829;28;20027;-80
2023/08/05 03:17:54;;;;;;;3.25;2.13;;;;;;;25.15;68.09;99067.81;5113049;28;20016;-81
2023/08/05 03:20:28;;;;;;;2.83;2.13;;;;;;;24.94;69.65;99097.47;5114002;28;20501;-81
2023/08/05 03:22:55;;;;;;;5.07;2.47;;;;;;;24.56;71.40;99067.31;5113481;28;20031;-81
2023/08/05 03:25:26;;;;;;;5.13;3.50;;;;;;;24.34;76.28;99062.81;5113566;28;20027;-80
2023/08/05 03:27:51;;;;;;;4.70;3.70;;;;;;;24.19;81.91;99093.72;5111873;28;20031;-81
2023/08/05 03:30:18;;;;;;;11.15;4.88;;;;;;;24.15;82.97;99062.66;5112880;28;20035;-82
2023/08/05 03:32:47;;;;;;;6.15;4.07;;;;;;;24.24;82.74;99068.13;5112967;28;20027;-81
2023/08/05 03:35:13;;;;;;;7.65;3.70;;;;;;;24.20;82.47;99077.44;5113392;28;20035;-81
2023/08/05 03:37:38;;;;;;;10.93;5.22;;;;;;;24.32;83.01;99091.75;5097631;28;20032;-80
2023/08/05 03:40:04;;;;;;;4.72;3.22;;;;;;;24.28;82.02;99066.03;5101817;28;20419;-81
2023/08/05 03:42:30;;;;;;;9.82;5.82;;;;;;;24.20;84.14;99071.19;5112507;28;20414;-80
2023/08/05 03:44:56;;;;;;;7.45;3.22;;;;;;;24.22;84.34;99080.00;5105441;28;20028;-82
2023/08/05 03:47:21;;;;;;;8.90;4.13;;;;;;;23.85;87.41;99067.69;5092782;28;20028;-81
2023/08/05 03:49:48;;;;;;;13.18;5.45;;;;;;;23.73;87.57;99030.94;5108885;28;20032;-81
2023/08/05 03:52:14;;;;;;;6.30;4.72;;;;;;;24.10;86.63;99061.16;5106524;28;20031;-81
2023/08/05 03:54:40;;;;;;;9.35;5.32;;;;;;;24.09;87.08;99066.69;5112892;28;20474;-82
2023/08/05 03:57:08;;;;;;;7.68;4.85;;;;;;;24.19;87.80;99088.34;5113079;28;20023;-82
2023/08/05 03:59:34;;;;;;;7.10;5.55;;;;;;;23.81;87.03;99024.94;5112130;28;20089;-84
2023/08/05 04:02:00;;;;;;;8.70;6.10;;;;;;;24.22;87.84;99085.38;5112233;28;20028;-82
2023/08/05 04:04:26;;;;;;;8.68;5.32;;;;;;;24.18;88.09;99084.78;5112274;28;20032;-82
2023/08/05 04:06:51;;;;;;;9.23;6.00;;;;;;;23.99;88.57;99061.19;5112831;28;20088;-80
2023/08/05 04:09:19;;;;;;;9.80;6.22;;;;;;;24.23;87.12;99055.63;5112449;28;20092;-82
2023/08/05 04:11:45;;;;;;;10.18;5.60;;;;;;;24.26;87.35;99070.69;5112400;28;20019;-81
2023/08/05 04:14:11;;;;;;;10.30;4.68;;;;;;;24.27;86.99;99053.56;5110080;28;20038;-85
2023/08/05 04:16:37;;;;;;;10.18;4.88;;;;;;;24.03;87.23;99038.41;5105269;28;20039;-83
2023/08/05 04:19:03;;;;;;;10.93;5.63;;;;;;;24.12;88.28;99061.03;5101476;28;20406;-81
2023/08/05 04:21:35;;;;;;;11.98;4.90;;;;;;;24.29;87.12;99055.13;5103075;28;20024;-80
2023/08/05 04:24:01;;;;;;;8.48;3.80;;;;;;;24.30;87.05;99061.38;5101159;28;20047;-81
2023/08/05 04:26:27;;;;;;;11.90;6.05;;;;;;;24.14;87.09;99053.69;5103082;28;20471;-80
2023/08/05 04:28:52;;;;;;;10.13;5.88;;;;;;;24.51;86.43;99079.47;5097475;28;20027;-83
2023/08/05 04:31:18;;;;;;;6.22;4.78;;;;;;;24.37;86.13;99045.56;5099847;28;20111;-82
2023/08/05 04:33:44;;;;;;;6.25;5.25;;;;;;;24.64;85.54;99072.94;5095696;28;20141;-81
2023/08/05 04:36:09;;;;;;;13.98;4.20;;;;;;;24.88;84.32;99087.19;5096295;28;20036;-81
2023/08/05 04:38:35;;;;;;;7.72;5.82;;;;;;;24.48;83.98;99041.00;5096102;28;20031;-80
2023/08/05 04:41:00;;;;;;;7.53;5.82;;;;;;;24.74;83.88;99062.25;5096780;28;20471;-82
2023/08/05 04:43:26;;;;;;;15.20;5.88;;;;;;;24.96;83.26;99082.00;5098000;28;20059;-83
2023/08/05 04:45:51;;;;;;;10.95;4.97;;;;;;;25.13;81.43;99067.09;5097135;28;20039;-81
2023/08/05 04:48:17;;;;;;;9.38;5.93;;;;;;;25.27;80.13;99090.19;5094620;28;20028;-82
2023/08/05 04:50:43;;;;;;;10.38;5.40;;;;;;;24.95;81.24;99099.19;5098645;28;20060;-82
2023/08/05 04:53:09;;;;;;;8.98;5.50;;;;;;;24.94;80.81;99075.91;5094236;28;20027;-82
2023/08/05 04:55:34;;;;;;;9.55;4.68;;;;;;;24.80;81.12;99064.41;5093807;28;20126;-82
2023/08/05 04:58:02;;;;;;;7.35;4.53;;;;;;;24.73;82.78;99084.81;5096973;28;20941;-82
2023/08/05 05:00:28;;;;;;;12.48;5.82;;;;;;;24.82;82.50;99097.53;5098185;28;20032;-81
2023/08/05 05:02:53;;;;;;;16.83;5.38;;;;;;;24.65;82.53;99049.53;5096581;28;20024;-81
2023/08/05 05:05:19;;;;;;;9.10;7.15;;;;;;;24.68;81.94;99049.28;5096414;28;20024;-81
2023/08/05 05:07:44;;;;;;;9.68;6.05;;;;;;;25.13;80.96;99094.06;5096022;28;20023;-82
2023/08/05 05:10:10;;;;;;;9.88;5.88;;;;;;;25.29;79.69;99080.16;5097029;28;20051;-82
2023/08/05 05:12:35;;;;;;;9.43;6.20;;;;;;;25.26;79.40;99077.69;5096607;28;20024;-81
2023/08/05 05:15:01;;;;;;;7.80;5.40;;;;;;;24.97;78.84;99033.31;5094660;28;20063;-82
2023/08/05 05:17:33;;;;;;;6.85;5.18;;;;;;;25.58;78.05;99088.44;5097198;28;20058;-83
2023/08/05 05:19:58;;;;;;;10.02;5.63;;;;;;;25.75;76.88;99089.66;5095711;28;20031;-83
2023/08/05 05:22:24;;;;;;;9.40;5.45;;;;;;;25.72;76.63;99112.38;5095490;28;20081;-81
2023/08/05 05:24:50;;;;;;;11.40;7.07;;;;;;;25.82;76.92;99089.97;5093483;28;20031;-83
2023/08/05 05:27:17;;;;;;;11.02;5.75;;;;;;;25.84;76.44;99087.97;5094768;28;20519;-82
2023/08/05 05:29:44;;;;;;;8.65;6.25;;;;;;;26.09;75.45;99092.13;5096998;28;20018;-83
2023/08/05 05:32:10;;;;;;;11.13;7.25;;;;;;;25.88;76.22;99084.88;5096730;28;20070;-81
2023/08/05 05:34:35;;;;;;;7.53;5.03;;;;;;;25.75;75.89;99049.16;5096867;28;20074;-81
2023/08/05 05:37:01;;;;;;;10.18;6.15;;;;;;;25.97;75.48;99087.78;5096417;28;20020;-82
2023/08/05 05:39:28;;;;;;;10.50;6.50;;;;;;;26.05;75.68;99091.50;5095668;28;20027;-82
2023/08/05 05:41:55;;;;;;;9.98;5.93;;;;;;;26.06;74.57;99054.56;5104156;28;20032;-83
2023/08/05 05:44:24;;;;;;;7.32;5.57;;;;;;;26.33;74.08;99074.69;5104070;27;20513;-83
2023/08/05 05:46:49;;;;;;;8.30;5.30;;;;;;;26.72;72.66;99083.72;5099309;28;20016;-82
2023/08/05 05:49:15;;;;;;;10.10;6.60;;;;;;;26.66;72.35;99059.94;5090123;28;20031;-80
2023/08/05 05:51:42;;;;;;;12.70;6.63;;;;;;;26.77;71.89;99054.41;5090180;28;20048;-81
2023/08/05 05:54:08;;;;;;;8.60;6.80;;;;;;;26.69;72.14;99069.63;5107294;28;20044;-88
2023/08/05 05:56:36;;;;;;;15.40;7.93;;;;;;;26.57;71.56;99010.25;5089622;28;20108;-88
2023/08/05 05:59:01;;;;;;;8.88;5.75;;;;;;;26.75;71.16;99006.84;5092091;28;20024;-84
2023/08/05 06:01:30;;;;;;;11.65;7.05;;;;;;;27.02;70.01;99040.41;5098256;28;20592;-85
2023/08/05 06:03:56;;;;;;;6.50;5.55;;;;;;;27.04;69.66;99060.09;5129432;27;20067;-85
2023/08/05 06:06:21;;;;;;;12.85;6.38;;;;;;;26.92;69.39;99011.53;5096124;28;20470;-83
2023/08/05 06:08:47;;;;;;;7.10;5.25;;;;;;;27.57;67.94;99061.44;5100318;28;20505;-86
2023/08/05 06:11:15;;;;;;;7.65;4.47;;;;;;;27.81;67.05;99048.22;5104923;28;20024;-86
2023/08/05 06:13:41;;;;;;;10.25;5.72;;;;;;;27.58;66.63;98995.44;5111338;28;20027;-85
2023/08/05 06:16:06;;;;;;;9.10;5.93;;;;;;;27.73;65.24;98993.06;5115077;28;20413;-85
2023/08/05 06:18:32;;;;;;;11.45;5.40;;;;;;;28.01;64.39;99019.22;5110825;28;20114;-87
2023/08/05 06:21:18;;;;;;;8.90;5.25;;;;;;;27.99;63.39;99004.97;5113463;28;20032;-86
2023/08/05 06:23:46;;;;;;;7.25;4.32;;;;;;;27.91;63.65;98983.13;5111608;28;20053;-87
2023/08/05 06:26:20;;;;;;;8.55;5.35;;;;;;;28.07;63.97;98989.78;5101791;28;20100;-86
2023/08/05 06:28:46;;;;;;;8.15;4.90;;;;;;;28.24;62.56;98959.16;5146947;27;20489;-87
2023/08/05 06:31:11;;;;;;;9.93;4.75;;;;;;;27.96;62.04;98961.03;5111984;28;20035;-88
2023/08/05 06:33:40;;;;;;;5.43;3.28;;;;;;;28.41;61.54;98995.41;5103261;28;20019;-91
2023/08/05 06:36:11;;;;;;;7.82;4.97;;;;;;;28.47;60.94;99002.94;5110910;28;20115;-90
2023/08/05 06:38:36;;;;;;;6.97;5.28;;;;;;;28.36;61.41;99009.44;5103286;28;20032;-90
2023/08/05 06:41:04;;;;;;;8.63;5.30;;;;;;;28.71;60.33;99012.31;5102298;28;20122;-90
2023/08/05 06:43:30;;;;;;;11.02;5.35;;;;;;;28.75;59.63;98989.31;5103775;28;20043;-89
2023/08/05 06:45:55;;;;;;;8.18;5.75;;;;;;;29.31;58.58;98997.19;5111291;28;20481;-90
2023/08/05 06:48:23;;;;;;;7.07;4.97;;;;;;;29.57;57.58;99002.63;5131530;27;20505;-94
2023/08/05 06:50:49;;;;;;;7.15;5.25;;;;;;;29.86;56.09;99004.13;5130064;27;20055;-91
2023/08/05 06:53:18;;;;;;;46.60;5.85;;;;;;;29.77;55.71;98981.47;5102618;28;20024;-92
2023/08/05 06:55:43;;;;;;;6.13;4.53;;;;;;;29.76;55.05;98956.16;5102727;28;20044;-89
2023/08/05 06:58:15;;;;;;;8.57;5.65;;;;;;;29.98;55.66;98992.81;5106040;28;20040;-92
2023/08/05 07:00:40;;;;;;;6.65;5.05;;;;;;;30.47;54.67;99011.13;5108677;28;20027;-84
2023/08/05 07:03:26;;;;;;;6.95;5.03;;;;;;;30.64;53.06;98968.44;5108859;28;20134;-85
2023/08/05 07:05:57;;;;;;;18.88;6.07;;;;;;;30.54;51.43;98970.50;5111766;28;20126;-86
2023/08/05 07:08:24;;;;;;;9.00;5.88;;;;;;;30.35;52.64;98988.81;5111126;28;20171;-87
2023/08/05 07:10:57;;;;;;;9.45;4.70;;;;;;;30.29;52.08;98989.47;5111381;28;20031;-86
2023/08/05 07:13:23;;;;;;;8.95;4.53;;;;;;;30.45;52.34;99006.88;5110775;28;20048;-85
2023/08/05 07:15:49;;;;;;;4.30;2.72;;;;;;;30.59;49.91;98980.88;5110314;28;20124;-84
2023/08/05 07:18:14;;;;;;;6.07;3.78;;;;;;;30.77;49.64;98973.41;5110480;28;20044;-83
2023/08/05 07:20:40;;;;;;;5.05;3.20;;;;;;;31.29;49.12;98993.94;5111296;28;20028;-83
2023/08/05 07:23:06;;;;;;;11.77;3.85;;;;;;;31.72;47.09;98947.34;5110926;28;20036;-82
2023/08/05 07:25:31;;;;;;;4.55;3.25;;;;;;;31.87;46.34;98977.41;5110824;28;20124;-82
2023/08/05 07:27:56;;;;;;;5.60;3.53;;;;;;;31.84;45.05;98986.81;5111407;28;20085;-82
2023/08/05 07:30:22;;;;;;;5.40;3.17;;;;;;;31.77;47.08;98997.56;5110477;28;20058;-81
2023/08/05 07:32:47;;;;;;;7.13;3.80;;;;;;;31.87;47.64;98978.28;5111208;28;20100;-83
2023/08/05 07:35:14;;;;;;;7.18;3.90;;;;;;;32.23;45.26;98975.03;5112918;28;20062;-89
2023/08/05 07:37:42;;;;;;;4.43;2.63;;;;;;;32.27;44.02;98968.19;5113007;28;20175;-88
2023/08/05 07:40:12;;;;;;;5.53;2.97;;;;;;;32.61;44.65;98966.06;5112726;28;20024;-88
2023/08/05 07:42:43;;;;;;;3.47;2.97;;;;;;;32.57;43.09;98926.53;5112834;28;20092;-87
2023/08/05 07:45:14;;;;;;;5.20;3.38;;;;;;;32.59;43.74;98949.84;5112338;28;20398;-92
2023/08/05 07:47:41;;;;;;;8.55;3.30;;;;;;;32.73;43.28;98958.31;5113462;28;20450;-96
2023/08/05 07:50:30;;;;;;;4.13;2.45;;;;;;;32.64;41.91;98938.38;5135807;27;20453;-92
2023/08/05 07:52:55;;;;;;;3.35;2.28;;;;;;;33.05;42.04;99008.22;5114913;27;20073;-95
2023/08/05 07:55:42;;;;;;;8.85;3.97;;;;;;;32.76;42.75;98950.59;5133820;27;20054;-91
2023/08/05 07:58:07;;;;;;;6.50;3.88;;;;;;;32.41;43.42;98939.28;5131203;27;20035;-87
2023/08/05 08:00:34;;;;;;;5.25;4.20;;;;;;;32.03;43.90;98886.50;5131355;27;20527;-89
2023/08/05 08:02:59;;;;;;;13.68;3.90;;;;;;;32.38;43.38;98906.91;5130519;27;20527;-87
2023/08/05 08:05:26;;;;;;;5.32;3.15;;;;;;;32.19;42.97;98891.84;5117813;27;20114;-88
2023/08/05 08:07:52;;;;;;;5.07;3.47;;;;;;;32.64;42.24;98913.81;5121473;27;20124;-86
2023/08/05 08:10:20;;;;;;;7.18;4.57;;;;;;;32.83;41.71;98907.88;5110693;28;20031;-86
2023/08/05 08:12:46;;;;;;;3.72;2.47;;;;;;;32.99;40.09;98928.69;5123102;27;20068;-86
2023/08/05 08:15:12;;;;;;;3.65;2.80;;;;;;;33.10;39.46;98937.47;5114567;27;20600;-83
2023/08/05 08:17:37;;;;;;;4.25;2.47;;;;;;;32.98;39.80;98915.22;5130536;27;20165;-88
2023/08/05 08:20:03;;;;;;;3.17;2.50;;;;;;;33.60;39.91;98926.84;5129966;27;20042;-86
2023/08/05 08:22:36;;;;;;;5.10;2.88;;;;;;;33.58;38.76;98927.03;5133606;27;20161;-88
2023/08/05 08:25:01;;;;;;;5.70;3.45;;;;;;;33.25;38.69;98861.88;5139662;27;20035;-87
2023/08/05 08:27:27;;;;;;;4.65;3.50;;;;;;;33.66;38.79;98898.75;5148490;27;20073;-84
2023/08/05 08:29:54;;;;;;;6.88;3.35;;;;;;;33.74;39.12;98893.22;5160247;27;20036;-83
2023/08/05 08:32:19;;;;;;;4.05;2.53;;;;;;;33.82;39.02;98892.25;5130568;28;20583;-86
2023/08/05 08:34:45;;;;;;;5.90;3.72;;;;;;;33.52;38.83;98889.53;5115094;28;20039;-83
2023/08/05 08:37:11;;;;;;;5.35;2.40;;;;;;;34.49;38.52;98912.94;5116245;28;20054;-93
2023/08/05 08:39:36;;;;;;;3.17;2.42;;;;;;;34.36;37.33;98880.84;5117413;28;20052;-85
2023/08/05 08:42:09;;;;;;;3.55;2.65;;;;;;;33.90;37.51;98884.75;5109641;28;20032;-82
2023/08/05 08:44:35;;;;;;;5.45;2.72;;;;;;;34.00;37.78;98916.41;5110465;28;20019;-78
2023/08/05 08:47:01;;;;;;;4.38;2.90;;;;;;;34.15;37.80;98910.91;5108637;28;20028;-79
2023/08/05 08:49:29;;;;;;;4.13;2.22;;;;;;;33.87;37.89;98914.41;5131239;28;20425;-83
2023/08/05 08:51:55;;;;;;;6.88;2.20;;;;;;;33.76;37.21;98865.69;5134863;28;20031;-83
2023/08/05 08:54:22;;;;;;;3.42;2.55;;;;;;;33.74;37.21;98887.75;5131480;28;20039;-88
2023/08/05 08:56:47;;;;;;;4.28;2.60;;;;;;;33.86;36.44;98855.25;5114182;28;20043;-83
2023/08/05 08:59:13;;;;;;;4.22;2.60;;;;;;;34.16;37.40;98877.03;5111379;28;20032;-82
2023/08/05 09:01:42;;;;;;;4.25;2.65;;;;;;;34.42;36.42;98874.56;5113956;28;20111;-84
2023/08/05 09:04:10;;;;;;;4.40;2.55;;;;;;;34.34;36.42;98851.97;5111509;28;20050;-83
2023/08/05 09:06:38;;;;;;;4.25;2.33;;;;;;;34.66;35.51;98872.44;5114026;28;20028;-82
2023/08/05 09:09:04;;;;;;;3.15;2.00;;;;;;;34.55;35.56;98848.34;5111222;28;20093;-85
2023/08/05 09:11:29;;;;;;;4.90;3.78;;;;;;;34.65;34.79;98813.28;5111424;28;20041;-83
2023/08/05 09:13:54;;;;;;;2.78;2.30;;;;;;;34.59;34.84;98825.84;5113953;28;20447;-85
2023/08/05 09:16:20;;;;;;;4.88;2.47;;;;;;;34.54;35.63;98835.69;5119105;28;20041;-86
2023/08/05 09:18:53;;;;;;;4.13;2.10;;;;;;;34.21;36.00;98803.41;5112863;28;20032;-89
2023/08/05 09:21:26;;;;;;;3.58;2.35;;;;;;;34.70;35.40;98824.44;5107621;28;20103;-84
2023/08/05 09:23:56;;;;;;;3.15;2.17;;;;;;;34.53;34.31;98806.66;5093445;28;20028;-90
2023/08/05 09:26:32;;;;;;;3.45;2.47;;;;;;;34.47;33.42;98826.63;5125681;27;20024;-85
2023/08/05 09:28:59;;;;;;;3.88;2.75;;;;;;;34.32;34.75;98793.84;5099073;28;20565;-88
2023/08/05 09:32:07;;;;;;;2.92;2.05;;;;;;;34.66;33.94;98817.69;5111157;28;20045;-88
2023/08/05 09:35:14;;;;;;;2.38;1.73;;;;;;;35.20;33.17;98820.75;5111693;28;20098;-88
2023/08/05 09:37:48;;;;;;;3.53;2.38;;;;;;;35.09;31.93;98781.91;5113747;28;20035;-83
2023/08/05 09:40:25;;;;;;;2.40;1.35;;;;;;;35.13;32.20;98805.13;5109287;28;20039;-91
2023/08/05 09:42:54;;;;;;;2.20;1.60;;;;;;;34.98;32.10;98771.56;5125533;27;20039;-88
2023/08/05 09:48:44;;;;;;;4.78;1.60;;;;;;;35.19;31.37;98778.81;5091082;28;20036;-89
2023/08/05 09:51:17;;;;;;;4.78;2.33;;;;;;;35.25;30.64;98769.78;5091235;28;20034;-89
2023/08/05 09:53:46;;;;;;;2.13;1.40;;;;;;;35.19;31.71;98767.84;5091284;28;20039;-88
2023/08/05 09:56:12;;;;;;;3.30;2.30;;;;;;;35.40;31.46;98771.53;5090942;28;20097;-89
2023/08/05 09:58:47;;;;;;;2.28;1.75;;;;;;;35.45;29.94;98767.13;5098475;28;20027;-88
2023/08/05 10:01:13;;;;;;;4.70;1.35;;;;;;;35.41;29.18;98774.06;5111712;28;20049;-87
2023/08/05 10:03:39;;;;;;;1.48;1.17;;;;;;;35.16;30.20;98749.09;5111430;28;20036;-91
2023/08/05 10:06:09;;;;;;;2.75;1.50;;;;;;;35.68;28.87;98772.25;5109867;28;20062;-88
2023/08/05 10:08:36;;;;;;;2.08;1.23;;;;;;;35.43;29.58;98755.50;5111402;28;20446;-90
2023/08/05 10:11:03;;;;;;;3.17;1.42;;;;;;;35.47;28.98;98756.78;5113132;28;20034;-92
2023/08/05 10:13:32;;;;;;;2.58;1.70;;;;;;;35.49;28.32;98732.75;5111306;28;20118;-92
2023/08/05 10:15:58;;;;;;;2.53;1.50;;;;;;;35.82;28.83;98753.06;5109484;28;20489;-91
2023/08/05 10:18:25;;;;;;;2.20;1.45;;;;;;;35.74;29.17;98740.38;5110763;28;20096;-92
2023/08/05 10:20:52;;;;;;;6.03;1.23;;;;;;;35.57;29.63;98719.91;5109527;28;20055;-96
2023/08/05 10:23:18;;;;;;;3.47;2.10;;;;;;;35.72;29.82;98742.50;5108824;28;20478;-94
2023/08/05 10:25:46;;;;;;;3.47;1.30;;;;;;;35.66;30.04;98703.03;5109256;28;20038;-93
2023/08/05 10:28:23;;;;;;;1.75;1.15;;;;;;;35.58;30.13;98722.44;5104956;28;20110;-93
2023/08/05 10:30:50;;;;;;;1.42;1.30;;;;;;;35.46;29.75;98700.25;5101459;28;20031;-92
2023/08/05 10:33:16;;;;;;;7.18;3.05;;;;;;;35.57;30.72;98701.53;5136601;27;20024;-92
2023/08/05 10:35:45;;;;;;;2.80;1.35;;;;;;;35.56;30.53;98705.38;5138804;27;20054;-93
2023/08/05 10:38:19;;;;;;;2.88;2.00;;;;;;;35.94;29.50;98709.41;5111316;28;20055;-93
2023/08/05 10:41:10;;;;;;;3.55;1.33;;;;;;;35.82;28.36;98696.34;5110978;28;20042;-94
2023/08/05 10:43:41;;;;;;;6.70;2.25;;;;;;;35.71;28.87;98685.94;5040631;28;20075;-93
2023/08/05 10:46:07;;;;;;;1.50;0.98;;;;;;;35.81;28.57;98704.78;5051746;28;20121;-92
2023/08/05 10:48:41;;;;;;;7.60;2.67;;;;;;;35.59;28.95;98663.81;5054335;28;20451;-94
2023/08/05 10:51:14;;;;;;;1.92;1.10;;;;;;;35.69;27.92;98693.56;5033543;28;20037;-96
2023/08/05 10:53:44;;;;;;;1.85;1.25;;;;;;;35.87;28.39;98681.13;5059703;28;20037;-95
2023/08/05 10:56:13;;;;;;;5.22;0.93;;;;;;;36.11;28.98;98685.97;5034683;28;20040;-93
2023/08/05 10:58:52;;;;;;;4.88;1.52;;;;;;;36.11;28.62;98660.44;5045546;28;20034;-91
2023/08/05 11:01:20;;;;;;;1.88;1.23;;;;;;;36.42;27.37;98672.63;5021085;28;20558;-95
2023/08/05 11:03:52;;;;;;;5.50;1.27;;;;;;;36.31;26.07;98652.19;5042229;28;20033;-94
2023/08/05 11:06:24;;;;;;;1.38;1.10;;;;;;;36.25;25.74;98664.81;5031805;28;20040;-93
2023/08/05 11:08:50;;;;;;;1.58;0.80;;;;;;;36.45;26.74;98663.97;5047679;28;20127;-95
2023/08/05 11:11:16;;;;;;;1.88;1.10;;;;;;;36.23;27.07;98601.09;5033339;28;20048;-94
2023/08/05 11:13:46;;;;;;;7.93;3.45;;;;;;;36.46;26.73;98657.44;5018986;28;20053;-96
2023/08/05 11:16:13;;;;;;;4.07;1.80;;;;;;;36.27;27.60;98634.44;5028743;28;20425;-96
2023/08/05 11:18:41;;;;;;;2.00;1.85;;;;;;;36.01;27.63;98639.75;5044005;28;20041;-93
2023/08/05 11:21:10;;;;;;;3.15;1.30;;;;;;;36.04;28.27;98619.28;5089777;28;20036;-90
2023/08/05 11:23:37;;;;;;;2.38;1.55;;;;;;;36.24;27.46;98632.97;5093733;28;20097;-91
2023/08/05 11:26:04;;;;;;;4.28;1.30;;;;;;;36.16;26.94;98623.06;5105212;28;20126;-92
2023/08/05 11:28:31;;;;;;;3.25;1.40;;;;;;;36.45;27.42;98611.81;5108653;28;20019;-94
2023/08/05 11:30:56;;;;;;;2.85;1.13;;;;;;;36.16;26.92;98581.03;5098057;28;20366;-91
2023/08/05 11:33:22;;;;;;;1.27;0.90;;;;;;;36.19;26.56;98588.84;5101439;28;20404;-94
2023/08/05 11:35:49;;;;;;;11.80;1.77;;;;;;;36.41;26.91;98613.28;5107697;28;20123;-95